createdAt,value
2023-04-19T00:00:53.028Z,4.84
2023-04-19T00:02:56.520Z,4.84
2023-04-19T00:05:00.277Z,4.83
2023-04-19T00:07:03.938Z,4.86
2023-04-19T00:09:07.334Z,4.86
2023-04-19T00:11:11.146Z,4.86
2023-04-19T00:13:14.521Z,4.85
2023-04-19T00:15:19.392Z,4.85
2023-04-19T00:17:23.130Z,4.83
2023-04-19T00:19:26.828Z,4.82
2023-04-19T00:21:30.181Z,4.80
2023-04-19T00:23:33.568Z,4.77
2023-04-19T00:25:36.962Z,4.75
2023-04-19T00:27:40.297Z,4.72
2023-04-19T00:29:43.658Z,4.70
2023-04-19T00:31:48.439Z,4.68
2023-04-19T00:33:51.875Z,4.67
2023-04-19T00:35:55.486Z,4.64
2023-04-19T00:37:58.828Z,4.63
2023-04-19T00:40:02.230Z,4.63
2023-04-19T00:42:05.627Z,4.62
2023-04-19T00:44:09.043Z,4.61
2023-04-19T00:46:12.966Z,4.61
2023-04-19T00:48:18.259Z,4.59
2023-04-19T00:50:23.190Z,4.59
2023-04-19T00:52:27.237Z,4.59
2023-04-19T00:54:31.473Z,4.57
2023-04-19T00:56:35.765Z,4.57
2023-04-19T00:58:40.155Z,4.57
2023-04-19T01:00:43.568Z,4.57
2023-04-19T01:02:47.568Z,4.57
2023-04-19T01:04:53.126Z,4.57
2023-04-19T01:06:57.470Z,4.54
2023-04-19T01:09:00.931Z,4.53
2023-04-19T01:11:04.407Z,4.50
2023-04-19T01:13:07.984Z,4.50
2023-04-19T01:15:14.284Z,4.51
2023-04-19T01:17:18.113Z,4.52
2023-04-19T01:19:21.401Z,4.54
2023-04-19T01:21:26.545Z,4.54
2023-04-19T01:23:31.340Z,4.54
2023-04-19T01:25:34.705Z,4.54
2023-04-19T01:27:38.193Z,4.53
2023-04-19T01:29:41.911Z,4.51
2023-04-19T01:31:49.318Z,4.51
2023-04-19T01:33:52.788Z,4.50
2023-04-19T01:35:56.352Z,4.51
2023-04-19T01:37:59.775Z,4.50
2023-04-19T01:40:05.503Z,4.50
2023-04-19T01:42:08.892Z,4.49
2023-04-19T01:44:13.940Z,4.49
2023-04-19T01:46:17.572Z,4.49
2023-04-19T01:48:20.953Z,4.50
2023-04-19T01:50:24.451Z,4.52
2023-04-19T01:52:27.938Z,4.53
2023-04-19T01:54:31.699Z,4.52
2023-04-19T01:56:36.524Z,4.51
2023-04-19T01:58:39.871Z,4.50
2023-04-19T02:00:43.481Z,4.50
2023-04-19T02:02:46.951Z,4.48
2023-04-19T02:04:52.018Z,4.46
2023-04-19T02:06:55.716Z,4.43
2023-04-19T02:08:59.057Z,4.41
2023-04-19T02:11:02.424Z,4.38
2023-04-19T02:13:07.282Z,4.39
2023-04-19T02:15:11.419Z,4.37
2023-04-19T02:17:14.952Z,4.37
2023-04-19T02:19:18.329Z,4.39
2023-04-19T02:21:21.825Z,4.40
2023-04-19T02:23:25.394Z,4.40
2023-04-19T02:25:28.856Z,4.38
2023-04-19T02:27:32.395Z,4.35
2023-04-19T02:29:37.457Z,4.32
2023-04-19T02:31:41.071Z,4.29
2023-04-19T02:33:46.864Z,4.28
2023-04-19T02:35:50.373Z,4.26
2023-04-19T02:37:53.720Z,4.25
2023-04-19T02:39:57.062Z,4.22
2023-04-19T02:42:01.217Z,4.20
2023-04-19T02:44:04.625Z,4.19
2023-04-19T02:46:09.448Z,4.17
2023-04-19T02:48:13.124Z,4.15
2023-04-19T02:50:17.719Z,4.13
2023-04-19T02:52:27.255Z,4.10
2023-04-19T02:54:30.965Z,4.08
2023-04-19T02:56:34.301Z,4.06
2023-04-19T02:58:38.874Z,4.03
2023-04-19T03:00:43.665Z,4.02
2023-04-19T03:02:52.872Z,3.98
2023-04-19T03:04:56.430Z,3.96
2023-04-19T03:07:00.214Z,3.94
2023-04-19T03:09:04.040Z,3.91
2023-04-19T03:11:07.802Z,3.88
2023-04-19T03:13:11.463Z,3.86
2023-04-19T03:15:14.873Z,3.83
2023-04-19T03:17:18.350Z,3.80
2023-04-19T03:19:23.743Z,3.78
2023-04-19T03:21:29.258Z,3.75
2023-04-19T03:23:32.907Z,3.73
2023-04-19T03:25:38.211Z,3.71
2023-04-19T03:28:04.702Z,3.69
2023-04-19T03:30:26.984Z,3.67
2023-04-19T03:32:30.693Z,3.66
2023-04-19T03:34:35.582Z,3.64
2023-04-19T03:36:39.763Z,3.63
2023-04-19T03:38:44.526Z,3.62
2023-04-19T03:40:53.187Z,3.62
2023-04-19T03:42:57.417Z,3.61
2023-04-19T03:45:07.891Z,3.59
2023-04-19T03:47:16.129Z,3.58
2023-04-19T03:49:22.853Z,3.57
2023-04-19T03:51:33.306Z,3.56
2023-04-19T03:53:37.927Z,3.55
2023-04-19T03:55:41.432Z,3.54
2023-04-19T03:57:44.811Z,3.52
2023-04-19T03:59:55.367Z,3.50
2023-04-19T04:01:59.881Z,3.47
2023-04-19T04:04:05.033Z,3.46
2023-04-19T04:06:09.233Z,3.44
2023-04-19T04:08:14.892Z,3.41
2023-04-19T04:10:18.808Z,3.39
2023-04-19T04:12:22.930Z,3.37
2023-04-19T04:14:28.769Z,3.35
2023-04-19T04:16:32.468Z,3.35
2023-04-19T04:18:36.202Z,3.34
2023-04-19T04:20:44.628Z,3.33
2023-04-19T04:22:48.729Z,3.32
2023-04-19T04:24:58.209Z,3.33
2023-04-19T04:27:10.925Z,3.33
2023-04-19T04:29:16.563Z,3.33
2023-04-19T04:31:21.155Z,3.33
2023-04-19T04:33:26.504Z,3.33
2023-04-19T04:35:30.730Z,3.33
2023-04-19T04:37:42.981Z,3.34
2023-04-19T04:39:46.437Z,3.35
2023-04-19T04:41:51.962Z,3.37
2023-04-19T04:44:11.316Z,3.38
2023-04-19T04:46:16.492Z,3.42
2023-04-19T04:48:19.894Z,3.46
2023-04-19T04:50:23.292Z,3.49
2023-04-19T04:52:26.910Z,3.53
2023-04-19T04:54:37.988Z,3.57
2023-04-19T04:56:45.912Z,3.60
2023-04-19T04:58:51.185Z,3.66
2023-04-19T05:01:03.582Z,3.69
2023-04-19T05:03:10.508Z,3.74
2023-04-19T05:05:21.972Z,3.80
2023-04-19T05:07:25.800Z,3.84
2023-04-19T05:09:29.203Z,3.89
2023-04-19T05:11:33.631Z,3.93
2023-04-19T05:13:37.445Z,3.98
2023-04-19T05:15:42.186Z,4.03
2023-04-19T05:17:45.985Z,4.09
2023-04-19T05:19:50.217Z,4.14
2023-04-19T05:21:53.641Z,4.20
2023-04-19T05:23:57.191Z,4.24
2023-04-19T05:26:00.595Z,4.29
2023-04-19T05:28:05.460Z,4.35
2023-04-19T05:30:17.607Z,4.42
2023-04-19T05:32:23.145Z,4.49
2023-04-19T05:34:31.600Z,4.55
2023-04-19T05:36:36.029Z,4.61
2023-04-19T05:38:39.538Z,4.68
2023-04-19T05:40:43.504Z,4.73
2023-04-19T05:42:46.880Z,4.79
2023-04-19T05:44:50.370Z,4.85
2023-04-19T05:46:53.845Z,4.89
2023-04-19T05:49:18.508Z,4.96
2023-04-19T05:51:51.229Z,5.01
2023-04-19T05:54:12.729Z,5.10
2023-04-19T05:56:17.528Z,5.17
2023-04-19T05:58:20.976Z,5.23
2023-04-19T06:00:24.438Z,5.29
2023-04-19T06:02:36.139Z,5.36
2023-04-19T06:04:41.576Z,5.44
2023-04-19T06:06:45.242Z,5.50
2023-04-19T06:08:54.450Z,5.57
2023-04-19T06:11:02.164Z,5.63
2023-04-19T06:13:11.542Z,5.71
2023-04-19T06:15:15.137Z,5.79
2023-04-19T06:17:23.538Z,5.87
2023-04-19T06:19:27.273Z,5.93
2023-04-19T06:21:33.408Z,6.01
2023-04-19T06:23:36.721Z,6.09
2023-04-19T06:25:40.097Z,6.17
2023-04-19T06:27:43.425Z,6.26
2023-04-19T06:29:46.800Z,6.34
2023-04-19T06:31:50.133Z,6.44
2023-04-19T06:33:53.589Z,6.54
2023-04-19T06:35:57.085Z,6.62
2023-04-19T06:38:01.992Z,6.71
2023-04-19T06:40:07.461Z,6.79
2023-04-19T06:42:10.932Z,6.86
2023-04-19T06:44:14.742Z,6.94
2023-04-19T06:46:18.409Z,7.02
2023-04-19T06:48:21.782Z,7.09
2023-04-19T06:50:25.345Z,7.17
2023-04-19T06:52:29.947Z,7.24
2023-04-19T06:54:34.779Z,7.29
2023-04-19T06:56:45.427Z,7.35
2023-04-19T06:58:48.840Z,7.41
2023-04-19T07:00:52.181Z,7.46
2023-04-19T07:02:55.609Z,7.52
2023-04-19T07:04:59.098Z,7.55
2023-04-19T07:07:02.365Z,7.60
2023-04-19T07:09:07.332Z,7.65
2023-04-19T07:11:12.144Z,7.71
2023-04-19T07:13:15.517Z,7.77
2023-04-19T07:15:19.013Z,7.82
2023-04-19T07:17:22.484Z,7.89
2023-04-19T07:19:26.396Z,7.97
2023-04-19T07:21:33.376Z,8.05
2023-04-19T07:23:36.810Z,8.14
2023-04-19T07:25:40.172Z,8.23
2023-04-19T07:27:44.947Z,8.28
2023-04-19T07:29:48.304Z,8.37
2023-04-19T07:31:52.119Z,8.44
2023-04-19T07:33:55.878Z,8.50
2023-04-19T07:35:59.198Z,8.59
2023-04-19T07:38:03.027Z,8.68
2023-04-19T07:40:07.849Z,8.75
2023-04-19T07:42:11.290Z,8.80
2023-04-19T07:44:16.244Z,8.87
2023-04-19T07:46:19.895Z,8.94
2023-04-19T07:48:23.430Z,8.99
2023-04-19T07:50:27.186Z,9.04
2023-04-19T07:52:30.589Z,9.11
2023-04-19T07:54:33.967Z,9.19
2023-04-19T07:56:37.346Z,9.28
2023-04-19T07:58:41.584Z,9.36
2023-04-19T08:00:46.612Z,9.45
2023-04-19T08:02:51.119Z,9.52
2023-04-19T08:04:54.839Z,9.58
2023-04-19T08:06:58.291Z,9.63
2023-04-19T08:09:01.712Z,9.67
2023-04-19T08:11:06.274Z,9.72
2023-04-19T08:13:09.682Z,9.77
2023-04-19T08:15:37.515Z,9.84
2023-04-19T08:17:42.200Z,9.92
2023-04-19T08:19:45.987Z,9.99
2023-04-19T08:21:49.371Z,10.05
2023-04-19T08:23:54.279Z,10.10
2023-04-19T08:25:57.826Z,10.16
2023-04-19T08:28:01.208Z,10.23
2023-04-19T08:30:05.054Z,10.30
2023-04-19T08:32:08.963Z,10.36
2023-04-19T08:34:13.741Z,10.43
2023-04-19T08:36:22.206Z,10.50
2023-04-19T08:38:28.894Z,10.57
2023-04-19T08:40:32.626Z,10.61
2023-04-19T08:42:37.108Z,10.66
2023-04-19T08:44:59.063Z,10.74
2023-04-19T08:47:05.113Z,10.85
2023-04-19T08:49:09.758Z,10.94
2023-04-19T08:51:15.213Z,11.01
2023-04-19T08:53:24.928Z,11.05
2023-04-19T08:55:30.660Z,11.08
2023-04-19T08:57:34.481Z,11.09
2023-04-19T08:59:37.823Z,11.12
2023-04-19T09:01:43.722Z,11.20
2023-04-19T09:03:59.470Z,11.28
2023-04-19T09:06:07.567Z,11.40
2023-04-19T09:08:26.549Z,11.53
2023-04-19T09:10:29.886Z,11.65
2023-04-19T09:12:33.352Z,11.76
2023-04-19T09:14:57.903Z,11.87
2023-04-19T09:17:15.827Z,12.00
2023-04-19T09:19:24.728Z,12.06
2023-04-19T09:21:30.582Z,12.06
2023-04-19T09:23:35.329Z,12.02
2023-04-19T09:26:05.824Z,12.02
2023-04-19T09:28:11.263Z,12.04
2023-04-19T09:30:28.002Z,12.09
2023-04-19T09:32:48.171Z,12.27
2023-04-19T09:34:56.167Z,12.46
2023-04-19T09:37:08.938Z,12.66
2023-04-19T09:39:29.931Z,12.85
2023-04-19T09:41:34.268Z,12.97
2023-04-19T09:43:58.928Z,13.05
2023-04-19T09:46:01.870Z,13.14
2023-04-19T09:48:07.796Z,13.14
2023-04-19T09:50:22.762Z,13.10
2023-04-19T09:52:27.383Z,13.06
2023-04-19T09:54:33.037Z,12.99
2023-04-19T09:56:37.569Z,12.90
2023-04-19T09:58:49.617Z,12.88
2023-04-19T10:01:10.675Z,12.81
2023-04-19T10:03:17.971Z,12.69
2023-04-19T10:05:22.898Z,12.59
2023-04-19T10:07:30.699Z,12.52
2023-04-19T10:09:45.882Z,12.48
2023-04-19T10:12:02.107Z,12.48
2023-04-19T10:14:18.203Z,12.48
2023-04-19T10:16:21.990Z,12.44
2023-04-19T10:18:26.616Z,12.38
2023-04-19T10:20:37.240Z,12.32
2023-04-19T10:22:41.686Z,12.29
2023-04-19T10:25:09.762Z,12.26
2023-04-19T10:27:13.930Z,12.27
2023-04-19T10:29:17.521Z,12.29
2023-04-19T10:31:23.709Z,12.34
2023-04-19T10:33:28.904Z,12.42
2023-04-19T10:35:37.853Z,12.47
2023-04-19T10:37:42.330Z,12.51
2023-04-19T10:39:46.531Z,12.55
2023-04-19T10:41:59.732Z,12.64
2023-04-19T10:44:12.858Z,12.70
2023-04-19T10:46:18.412Z,12.70
2023-04-19T10:48:44.115Z,12.69
2023-04-19T10:50:59.747Z,12.76
2023-04-19T10:53:53.586Z,12.88
2023-04-19T10:55:56.924Z,13.01
2023-04-19T10:58:06.350Z,13.13
2023-04-19T11:00:22.398Z,13.25
2023-04-19T11:02:30.905Z,13.30
2023-04-19T11:05:00.613Z,13.27
2023-04-19T11:07:06.013Z,13.20
2023-04-19T11:09:10.776Z,13.17
2023-04-19T11:11:15.491Z,13.23
2023-04-19T11:13:20.526Z,13.25
2023-04-19T11:15:24.402Z,13.20
2023-04-19T11:17:29.487Z,13.14
2023-04-19T11:19:32.925Z,13.15
2023-04-19T11:21:41.069Z,13.19
2023-04-19T11:23:44.502Z,13.28
2023-04-19T11:25:48.575Z,13.32
2023-04-19T11:27:53.509Z,13.34
2023-04-19T11:30:05.763Z,13.32
2023-04-19T11:32:09.098Z,13.33
2023-04-19T11:34:13.314Z,13.38
2023-04-19T11:36:16.953Z,13.40
2023-04-19T11:38:20.259Z,13.40
2023-04-19T11:40:26.019Z,13.37
2023-04-19T11:42:29.535Z,13.33
2023-04-19T11:44:34.186Z,13.31
2023-04-19T11:46:38.979Z,13.34
2023-04-19T11:48:52.437Z,13.36
2023-04-19T11:50:59.736Z,13.36
2023-04-19T11:53:12.617Z,13.36
2023-04-19T11:55:25.468Z,13.40
2023-04-19T11:57:30.215Z,13.46
2023-04-19T11:59:35.740Z,13.48
2023-04-19T12:01:42.514Z,13.44
2023-04-19T12:03:47.752Z,13.40
2023-04-19T12:05:55.589Z,13.37
2023-04-19T12:08:04.070Z,13.34
2023-04-19T12:10:12.750Z,13.32
2023-04-19T12:12:33.009Z,13.34
2023-04-19T12:14:36.390Z,13.42
2023-04-19T12:16:41.526Z,13.52
2023-04-19T12:18:50.364Z,13.53
2023-04-19T12:20:55.032Z,13.53
2023-04-19T12:22:58.406Z,13.57
2023-04-19T12:25:01.871Z,13.60
2023-04-19T12:27:06.055Z,13.57
2023-04-19T12:29:09.998Z,13.56
2023-04-19T12:31:13.555Z,13.60
2023-04-19T12:33:18.236Z,13.68
2023-04-19T12:35:21.771Z,13.74
2023-04-19T12:37:25.241Z,13.79
2023-04-19T12:39:29.431Z,13.78
2023-04-19T12:41:32.730Z,13.78
2023-04-19T12:43:36.049Z,13.77
2023-04-19T12:45:39.489Z,13.71
2023-04-19T12:47:43.430Z,13.68
2023-04-19T12:49:48.687Z,13.71
2023-04-19T12:51:52.111Z,13.76
2023-04-19T12:53:55.672Z,13.79
2023-04-19T12:55:59.360Z,13.81
2023-04-19T12:58:02.720Z,13.80
2023-04-19T13:00:08.986Z,13.86
2023-04-19T13:02:12.568Z,13.98
2023-04-19T13:04:16.607Z,14.09
2023-04-19T13:06:21.822Z,14.23
2023-04-19T13:08:41.102Z,14.34
2023-04-19T13:10:47.250Z,14.40
2023-04-19T13:12:50.711Z,14.39
2023-04-19T13:14:54.227Z,14.40
2023-04-19T13:16:57.574Z,14.44
2023-04-19T13:19:01.066Z,14.48
2023-04-19T13:21:06.089Z,14.54
2023-04-19T13:23:12.729Z,14.57
2023-04-19T13:25:16.095Z,14.57
2023-04-19T13:27:19.461Z,14.62
2023-04-19T13:29:22.900Z,14.72
2023-04-19T13:31:26.626Z,14.82
2023-04-19T13:33:30.231Z,14.96
2023-04-19T13:35:33.586Z,15.13
2023-04-19T13:37:36.924Z,15.19
2023-04-19T13:39:41.758Z,15.19
2023-04-19T13:41:45.103Z,15.18
2023-04-19T13:43:48.749Z,15.26
2023-04-19T13:45:52.138Z,15.42
2023-04-19T13:47:55.473Z,15.53
2023-04-19T13:49:58.845Z,15.57
2023-04-19T13:52:02.354Z,15.53
2023-04-19T13:54:06.339Z,15.44
2023-04-19T13:56:11.238Z,15.34
2023-04-19T13:58:14.785Z,15.26
2023-04-19T14:00:19.220Z,15.19
2023-04-19T14:02:22.835Z,15.09
2023-04-19T14:04:26.802Z,14.97
2023-04-19T14:06:30.343Z,14.83
2023-04-19T14:08:33.729Z,14.76
2023-04-19T14:10:38.105Z,14.75
2023-04-19T14:12:42.822Z,14.68
2023-04-19T14:14:46.158Z,14.64
2023-04-19T14:16:49.693Z,14.66
2023-04-19T14:18:53.288Z,14.68
2023-04-19T14:20:56.626Z,14.66
2023-04-19T14:23:00.384Z,14.64
2023-04-19T14:25:04.136Z,14.68
2023-04-19T14:27:11.256Z,14.71
2023-04-19T14:29:16.868Z,14.73
2023-04-19T14:31:20.438Z,14.78
2023-04-19T14:33:23.920Z,14.89
2023-04-19T14:35:27.302Z,15.01
2023-04-19T14:37:30.771Z,15.10
2023-04-19T14:39:34.067Z,15.19
2023-04-19T14:41:37.493Z,15.26
2023-04-19T14:43:40.822Z,15.23
2023-04-19T14:45:45.850Z,15.22
2023-04-19T14:47:49.289Z,15.21
2023-04-19T14:49:52.651Z,15.27
2023-04-19T14:51:56.049Z,15.28
2023-04-19T14:53:59.762Z,15.30
2023-04-19T14:56:05.724Z,15.31
2023-04-19T14:58:09.136Z,15.30
2023-04-19T15:00:14.552Z,15.27
2023-04-19T15:02:19.377Z,15.24
2023-04-19T15:04:22.911Z,15.29
2023-04-19T15:06:26.403Z,15.34
2023-04-19T15:08:30.927Z,15.32
2023-04-19T15:10:37.621Z,15.35
2023-04-19T15:12:41.643Z,15.48
2023-04-19T15:14:45.159Z,15.55
2023-04-19T15:16:48.596Z,15.54
2023-04-19T15:18:53.763Z,15.56
2023-04-19T15:20:57.088Z,15.64
2023-04-19T15:23:00.464Z,15.69
2023-04-19T15:25:03.849Z,15.63
2023-04-19T15:27:07.723Z,15.54
2023-04-19T15:29:11.071Z,15.51
2023-04-19T15:31:14.454Z,15.52
2023-04-19T15:33:17.765Z,15.66
2023-04-19T15:35:22.777Z,15.69
2023-04-19T15:37:27.490Z,15.64
2023-04-19T15:39:30.920Z,15.65
2023-04-19T15:41:34.291Z,15.67
2023-04-19T15:43:38.447Z,15.63
2023-04-19T15:45:46.032Z,15.58
2023-04-19T15:47:49.588Z,15.52
2023-04-19T15:49:54.217Z,15.44
2023-04-19T15:51:59.144Z,15.48
2023-04-19T15:54:02.511Z,15.57
2023-04-19T15:56:07.784Z,15.59
2023-04-19T15:58:11.463Z,15.57
2023-04-19T16:00:15.825Z,15.52
2023-04-19T16:02:19.817Z,15.41
2023-04-19T16:04:24.245Z,15.33
2023-04-19T16:06:28.594Z,15.21
2023-04-19T16:08:35.297Z,15.10
2023-04-19T16:10:39.512Z,15.01
2023-04-19T16:12:44.305Z,14.94
2023-04-19T16:14:47.678Z,14.79
2023-04-19T16:16:51.254Z,14.64
2023-04-19T16:18:54.865Z,14.54
2023-04-19T16:20:58.507Z,14.50
2023-04-19T16:23:03.525Z,14.51
2023-04-19T16:25:11.099Z,14.52
2023-04-19T16:27:15.050Z,14.44
2023-04-19T16:29:18.908Z,14.36
2023-04-19T16:31:23.033Z,14.29
2023-04-19T16:33:26.559Z,14.22
2023-04-19T16:35:30.015Z,14.13
2023-04-19T16:37:33.475Z,13.99
2023-04-19T16:39:36.829Z,13.87
2023-04-19T16:41:41.734Z,13.75
2023-04-19T16:43:45.380Z,13.62
2023-04-19T16:45:49.026Z,13.58
2023-04-19T16:47:53.937Z,13.56
2023-04-19T16:49:57.651Z,13.52
2023-04-19T16:52:01.079Z,13.49
2023-04-19T16:54:04.530Z,13.47
2023-04-19T16:56:08.330Z,13.44
2023-04-19T16:58:13.120Z,13.40
2023-04-19T17:00:17.611Z,13.34
2023-04-19T17:02:21.145Z,13.27
2023-04-19T17:04:25.065Z,13.20
2023-04-19T17:06:28.911Z,13.13
2023-04-19T17:08:32.253Z,13.09
2023-04-19T17:10:35.695Z,13.04
2023-04-19T17:12:39.860Z,13.00
2023-04-19T17:14:44.675Z,12.97
2023-04-19T17:16:48.197Z,12.94
2023-04-19T17:18:51.622Z,12.93
2023-04-19T17:20:55.044Z,12.95
2023-04-19T17:22:58.721Z,12.97
2023-04-19T17:25:02.173Z,13.00
2023-04-19T17:27:06.177Z,13.07
2023-04-19T17:29:10.049Z,13.06
2023-04-19T17:31:15.105Z,12.97
2023-04-19T17:33:18.448Z,12.84
2023-04-19T17:35:22.037Z,12.74
2023-04-19T17:37:25.979Z,12.71
2023-04-19T17:39:29.370Z,12.69
2023-04-19T17:41:32.967Z,12.67
2023-04-19T17:43:36.560Z,12.66
2023-04-19T17:45:40.376Z,12.61
2023-04-19T17:47:45.203Z,12.46
2023-04-19T17:49:49.463Z,12.31
2023-04-19T17:51:53.238Z,12.21
2023-04-19T17:53:56.601Z,12.14
2023-04-19T17:55:59.868Z,12.08
2023-04-19T17:58:03.182Z,12.02
2023-04-19T18:00:10.677Z,11.92
2023-04-19T18:02:14.221Z,11.81
2023-04-19T18:04:23.087Z,11.68
2023-04-19T18:06:26.661Z,11.49
2023-04-19T18:08:30.050Z,11.30
2023-04-19T18:10:36.417Z,11.12
2023-04-19T18:12:39.916Z,10.95
2023-04-19T18:14:43.341Z,10.78
2023-04-19T18:16:46.824Z,10.63
2023-04-19T18:18:50.266Z,10.50
2023-04-19T18:20:55.198Z,10.36
2023-04-19T18:23:00.092Z,10.22
2023-04-19T18:25:03.498Z,10.10
2023-04-19T18:27:06.933Z,9.98
2023-04-19T18:29:12.483Z,9.86
2023-04-19T18:31:19.279Z,9.78
2023-04-19T18:33:22.754Z,9.70
2023-04-19T18:35:26.592Z,9.62
2023-04-19T18:37:31.632Z,9.55
2023-04-19T18:39:34.960Z,9.48
2023-04-19T18:41:39.054Z,9.40
2023-04-19T18:45:46.675Z,9.27
2023-04-19T18:47:50.139Z,9.23
2023-04-19T18:50:04.427Z,9.17
2023-04-19T18:52:09.407Z,9.12
2023-04-19T18:54:14.095Z,9.08
2023-04-19T18:56:18.587Z,9.02
2023-04-19T18:58:22.702Z,8.97
2023-04-19T19:00:26.034Z,8.92
2023-04-19T19:02:29.597Z,8.88
2023-04-19T19:04:51.057Z,8.83
2023-04-19T19:07:02.514Z,8.78
2023-04-19T19:09:13.061Z,8.73
2023-04-19T19:11:47.216Z,8.68
2023-04-19T19:13:40.631Z,8.62
2023-04-19T19:15:43.966Z,8.59
2023-04-19T19:17:49.724Z,8.57
2023-04-19T19:19:54.102Z,8.53
2023-04-19T19:21:57.723Z,8.50
2023-04-19T19:24:01.084Z,8.48
2023-04-19T19:26:06.276Z,8.47
2023-04-19T19:28:10.623Z,8.44
2023-04-19T19:30:15.229Z,8.42
2023-04-19T19:32:20.965Z,8.38
2023-04-19T19:34:29.181Z,8.38
2023-04-19T19:36:33.991Z,8.37
2023-04-19T19:38:37.802Z,8.35
2023-04-19T19:41:13.975Z,8.34
2023-04-19T19:43:08.629Z,8.31
2023-04-19T19:45:12.528Z,8.25
2023-04-19T19:47:17.196Z,8.21
2023-04-19T19:49:22.164Z,8.17
2023-04-19T19:53:32.653Z,8.08
2023-04-19T19:55:37.188Z,8.04
2023-04-19T19:59:56.360Z,8.00
2023-04-19T20:02:02.120Z,7.98
2023-04-19T20:04:07.155Z,7.96
2023-04-19T20:06:57.139Z,7.95
2023-04-19T20:08:37.462Z,7.92
2023-04-19T20:10:44.279Z,7.91
2023-04-19T20:12:48.613Z,7.90
2023-04-19T20:14:53.430Z,7.91
2023-04-19T20:16:57.661Z,7.92
2023-04-19T20:19:03.127Z,7.95
2023-04-19T20:21:06.552Z,7.99
2023-04-19T20:23:10.354Z,8.01
2023-04-19T20:25:18.967Z,8.04
2023-04-19T20:27:22.537Z,8.05
2023-04-19T20:29:25.900Z,8.07
2023-04-19T20:31:30.807Z,8.10
2023-04-19T20:33:34.406Z,8.12
2023-04-19T20:35:41.605Z,8.14
2023-04-19T20:37:45.547Z,8.17
2023-04-19T20:39:49.217Z,8.17
2023-04-19T20:41:53.920Z,8.19
2023-04-19T20:43:59.869Z,8.21
2023-04-19T20:46:03.581Z,8.24
2023-04-19T20:48:08.945Z,8.26
2023-04-19T20:50:12.562Z,8.28
2023-04-19T20:52:15.965Z,8.31
2023-04-19T20:54:19.396Z,8.35
2023-04-19T20:56:23.127Z,8.37
2023-04-19T20:58:26.677Z,8.40
2023-04-19T21:00:29.952Z,8.41
2023-04-19T21:02:33.377Z,8.44
2023-04-19T21:04:38.301Z,8.46
2023-04-19T21:06:41.774Z,8.45
2023-04-19T21:08:45.158Z,8.46
2023-04-19T21:10:48.496Z,8.48
2023-04-19T21:12:51.797Z,8.50
2023-04-19T21:14:55.095Z,8.49
2023-04-19T21:16:58.512Z,8.52
2023-04-19T21:19:01.850Z,8.53
2023-04-19T21:21:06.577Z,8.55
2023-04-19T21:23:10.057Z,8.56
2023-04-19T21:25:14.124Z,8.58
2023-04-19T21:27:17.419Z,8.59
2023-04-19T21:29:21.387Z,8.62
2023-04-19T21:31:24.791Z,8.64
2023-04-19T21:33:30.669Z,8.65
2023-04-19T21:35:36.744Z,8.67
2023-04-19T21:37:41.441Z,8.68
2023-04-19T21:39:44.868Z,8.68
2023-04-19T21:41:48.264Z,8.69
2023-04-19T21:43:51.753Z,8.69
2023-04-19T21:45:55.158Z,8.70
2023-04-19T21:47:58.648Z,8.72
2023-04-19T21:50:02.226Z,8.74
2023-04-19T21:52:05.890Z,8.77
2023-04-19T21:54:10.764Z,8.78
2023-04-19T21:56:16.252Z,8.81
2023-04-19T21:58:20.005Z,8.82
2023-04-19T22:00:24.368Z,8.84
2023-04-19T22:02:27.972Z,8.87
2023-04-19T22:04:31.850Z,8.89
2023-04-19T22:06:35.439Z,8.90
2023-04-19T22:08:38.827Z,8.94
2023-04-19T22:10:43.754Z,8.97
2023-04-19T22:12:57.873Z,9.00
2023-04-19T22:15:02.716Z,9.04
2023-04-19T22:17:06.467Z,9.06
2023-04-19T22:19:10.115Z,9.09
2023-04-19T22:21:13.556Z,9.10
2023-04-19T22:23:16.944Z,9.12
2023-04-19T22:25:20.633Z,9.13
2023-04-19T22:27:25.551Z,9.15
2023-04-19T22:29:29.090Z,9.15
2023-04-19T22:31:32.584Z,9.13
2023-04-19T22:33:35.974Z,9.11
2023-04-19T22:35:39.558Z,9.08
2023-04-19T22:37:43.025Z,9.06
2023-04-19T22:39:46.483Z,9.04
2023-04-19T22:41:50.030Z,9.05
2023-04-19T22:43:55.579Z,9.05
2023-04-19T22:45:58.920Z,9.06
2023-04-19T22:48:03.296Z,9.05
2023-04-19T22:50:07.804Z,9.07
2023-04-19T22:52:11.504Z,9.09
2023-04-19T22:54:14.853Z,9.08
2023-04-19T22:56:18.521Z,9.09
2023-04-19T22:58:21.968Z,9.10
2023-04-19T23:00:26.881Z,9.10
2023-04-19T23:02:30.403Z,9.11
2023-04-19T23:04:35.413Z,9.11
2023-04-19T23:06:39.635Z,9.12
2023-04-19T23:08:43.000Z,9.13
2023-04-19T23:10:46.360Z,9.13
2023-04-19T23:12:49.761Z,9.13
2023-04-19T23:14:53.244Z,9.13
2023-04-19T23:16:59.158Z,9.12
2023-04-19T23:19:02.573Z,9.10
2023-04-19T23:21:06.192Z,9.10
2023-04-19T23:23:09.561Z,9.09
2023-04-19T23:25:12.951Z,9.10
2023-04-19T23:27:16.497Z,9.09
2023-04-19T23:29:19.921Z,9.06
2023-04-19T23:31:23.459Z,9.04
2023-04-19T23:33:28.394Z,9.02
2023-04-19T23:35:31.785Z,9.00
2023-04-19T23:37:35.323Z,8.98
2023-04-19T23:39:38.835Z,8.95
2023-04-19T23:41:42.229Z,8.92
2023-04-19T23:43:46.947Z,8.90
2023-04-19T23:45:50.481Z,8.88
2023-04-19T23:47:53.976Z,8.84
2023-04-19T23:49:58.825Z,8.83
2023-04-19T23:52:02.631Z,8.82
2023-04-19T23:54:06.237Z,8.81
2023-04-19T23:56:09.908Z,8.80
2023-04-19T23:58:13.357Z,8.78
